Bridgewater, Maine
Current Conditions -  °F | °C
As of 11:35 PM on Wednesday 26 Nov 2014 (Local Time) from KPQI Reporting Station
Overcast Overcast  
Wind Chill: 14°   Ceiling: 800
Heat Index: 27°   Visibility: 1mi
Dew Point: 23°   Wind: 16mph
Humidity: 86%   Direction: 10°N
Pressure: 29.95"   Gusts: NA
Location:  46.43°N, 67.84°W
Report Text: KPQI 270435Z AUTO 01014KT 1SM OVC008 M03/M05 A2995 RMK AO1
Loading
Personal Weather Stations






























Interactive Weather Map New forecast layout! Learn more

10-Day Weather Forecast

Advertisements
Track Severe Weather on mobile